Sister Bay, Wisconsin
Current Conditions -  °F | °C
As of 6:55 PM on Wednesday 22 Oct 2014 (Local Time) from KMNM Reporting Station
Clear Clear  
Wind Chill: 39°   Ceiling: Unl
Heat Index: 43°   Visibility: 10mi
Dew Point: 36°   Wind: 6mph
Humidity: 76%   Direction: 170°S
Pressure: 30.26"   Gusts: NA
Location:  45.19°N, 87.12°W
Report Text: KMNM 222355Z AUTO 17005KT 10SM CLR 06/02 A3026 RMK AO1 10090 20060 57014
Loading
Personal Weather Stations






























Interactive Weather Map
Tropical Storm Tracking
New forecast layout! Learn more

10-Day Weather Forecast

Advertisements
Track Severe Weather on mobile